sensor_id;sensor_type;location;lat;lon;timestamp;P1;P2;P0
63969;PMS5003;50156;37.772;-122.432;2022-10-30T00:01:00;6;6;
63969;PMS5003;50156;37.772;-122.432;2022-10-30T00:03:29;7;7;
63969;PMS5003;50156;37.772;-122.432;2022-10-30T00:05:58;9;9;
63969;PMS5003;50156;37.772;-122.432;2022-10-30T00:08:29;6;5;
63969;PMS5003;50156;37.772;-122.432;2022-10-30T00:11:04;6;5;
63969;PMS5003;50156;37.772;-122.432;2022-10-30T00:13:35;10;7;
63969;PMS5003;50156;37.772;-122.432;2022-10-30T00:16:05;6;6;
63969;PMS5003;50156;37.772;-122.432;2022-10-30T00:18:35;9;9;
63969;PMS5003;50156;37.772;-122.432;2022-10-30T00:21:05;8;8;
63969;PMS5003;50156;37.772;-122.432;2022-10-30T00:23:35;8;8;
63969;PMS5003;50156;37.772;-122.432;2022-10-30T00:26:05;7;7;
63969;PMS5003;50156;37.772;-122.432;2022-10-30T00:28:34;11;9;
63969;PMS5003;50156;37.772;-122.432;2022-10-30T00:31:03;7;5;
63969;PMS5003;50156;37.772;-122.432;2022-10-30T00:33:32;8;7;
63969;PMS5003;50156;37.772;-122.432;2022-10-30T00:36:01;9;9;
63969;PMS5003;50156;37.772;-122.432;2022-10-30T00:38:31;10;8;
63969;PMS5003;50156;37.772;-122.432;2022-10-30T00:41:00;5;5;
63969;PMS5003;50156;37.772;-122.432;2022-10-30T00:43:31;11;11;
63969;PMS5003;50156;37.772;-122.432;2022-10-30T00:46:04;10;10;
63969;PMS5003;50156;37.772;-122.432;2022-10-30T00:48:41;7;7;
63969;PMS5003;50156;37.772;-122.432;2022-10-30T00:51:12;10;10;
63969;PMS5003;50156;37.772;-122.432;2022-10-30T00:53:40;8;6;
63969;PMS5003;50156;37.772;-122.432;2022-10-30T00:56:11;10;10;
63969;PMS5003;50156;37.772;-122.432;2022-10-30T00:58:43;10;9;
63969;PMS5003;50156;37.772;-122.432;2022-10-30T01:01:19;11;9;
63969;PMS5003;50156;37.772;-122.432;2022-10-30T01:03:54;8;8;
63969;PMS5003;50156;37.772;-122.432;2022-10-30T01:06:26;8;8;
63969;PMS5003;50156;37.772;-122.432;2022-10-30T01:08:56;10;9;
63969;PMS5003;50156;37.772;-122.432;2022-10-30T01:11:26;11;10;
63969;PMS5003;50156;37.772;-122.432;2022-10-30T01:13:55;9;9;
63969;PMS5003;50156;37.772;-122.432;2022-10-30T01:16:33;8;8;
63969;PMS5003;50156;37.772;-122.432;2022-10-30T01:19:19;9;9;
63969;PMS5003;50156;37.772;-122.432;2022-10-30T01:22:02;14;12;
63969;PMS5003;50156;37.772;-122.432;2022-10-30T01:24:48;16;12;
63969;PMS5003;50156;37.772;-122.432;2022-10-30T01:27:29;12;10;
63969;PMS5003;50156;37.772;-122.432;2022-10-30T01:30:09;14;11;
63969;PMS5003;50156;37.772;-122.432;2022-10-30T01:32:56;10;8;
63969;PMS5003;50156;37.772;-122.432;2022-10-30T01:35:36;9;8;
63969;PMS5003;50156;37.772;-122.432;2022-10-30T01:38:14;14;12;
63969;PMS5003;50156;37.772;-122.432;2022-10-30T01:40:48;14;14;
63969;PMS5003;50156;37.772;-122.432;2022-10-30T01:43:17;12;12;
63969;PMS5003;50156;37.772;-122.432;2022-10-30T01:45:51;8;8;
63969;PMS5003;50156;37.772;-122.432;2022-10-30T01:48:43;8;8;
63969;PMS5003;50156;37.772;-122.432;2022-10-30T01:51:40;14;12;
63969;PMS5003;50156;37.772;-122.432;2022-10-30T01:54:20;8;8;
63969;PMS5003;50156;37.772;-122.432;2022-10-30T01:56:58;16;14;
63969;PMS5003;50156;37.772;-122.432;2022-10-30T01:59:35;13;11;
63969;PMS5003;50156;37.772;-122.432;2022-10-30T02:02:05;15;12;
63969;PMS5003;50156;37.772;-122.432;2022-10-30T02:04:35;15;12;
63969;PMS5003;50156;37.772;-122.432;2022-10-30T02:07:04;12;11;
63969;PMS5003;50156;37.772;-122.432;2022-10-30T02:09:33;13;10;
63969;PMS5003;50156;37.772;-122.432;2022-10-30T02:12:02;10;9;
63969;PMS5003;50156;37.772;-122.432;2022-10-30T02:14:32;12;11;
63969;PMS5003;50156;37.772;-122.432;2022-10-30T02:17:06;14;11;
63969;PMS5003;50156;37.772;-122.432;2022-10-30T02:19:36;12;11;
63969;PMS5003;50156;37.772;-122.432;2022-10-30T02:22:04;11;11;
63969;PMS5003;50156;37.772;-122.432;2022-10-30T02:24:33;13;13;
63969;PMS5003;50156;37.772;-122.432;2022-10-30T02:27:02;9;9;
63969;PMS5003;50156;37.772;-122.432;2022-10-30T02:29:31;12;11;
63969;PMS5003;50156;37.772;-122.432;2022-10-30T02:32:00;14;14;
63969;PMS5003;50156;37.772;-122.432;2022-10-30T02:34:29;17;14;
63969;PMS5003;50156;37.772;-122.432;2022-10-30T02:36:59;16;16;
63969;PMS5003;50156;37.772;-122.432;2022-10-30T02:39:27;16;14;
63969;PMS5003;50156;37.772;-122.432;2022-10-30T02:41:56;13;11;
63969;PMS5003;50156;37.772;-122.432;2022-10-30T02:44:24;11;10;
63969;PMS5003;50156;37.772;-122.432;2022-10-30T02:46:53;12;12;
63969;PMS5003;50156;37.772;-122.432;2022-10-30T02:49:21;10;10;
63969;PMS5003;50156;37.772;-122.432;2022-10-30T02:51:51;12;12;
63969;PMS5003;50156;37.772;-122.432;2022-10-30T02:54:20;16;14;
63969;PMS5003;50156;37.772;-122.432;2022-10-30T02:56:50;11;10;
63969;PMS5003;50156;37.772;-122.432;2022-10-30T02:59:18;16;15;
63969;PMS5003;50156;37.772;-122.432;2022-10-30T03:01:46;15;13;
63969;PMS5003;50156;37.772;-122.432;2022-10-30T03:04:15;13;13;
63969;PMS5003;50156;37.772;-122.432;2022-10-30T03:06:44;11;11;
63969;PMS5003;50156;37.772;-122.432;2022-10-30T03:09:12;11;11;
63969;PMS5003;50156;37.772;-122.432;2022-10-30T03:11:41;14;14;
63969;PMS5003;50156;37.772;-122.432;2022-10-30T03:14:10;16;15;
63969;PMS5003;50156;37.772;-122.432;2022-10-30T03:16:38;13;12;
63969;PMS5003;50156;37.772;-122.432;2022-10-30T03:19:08;10;10;
63969;PMS5003;50156;37.772;-122.432;2022-10-30T03:21:36;14;12;
63969;PMS5003;50156;37.772;-122.432;2022-10-30T03:24:05;11;11;
63969;PMS5003;50156;37.772;-122.432;2022-10-30T03:26:34;17;16;
63969;PMS5003;50156;37.772;-122.432;2022-10-30T03:29:03;14;13;
63969;PMS5003;50156;37.772;-122.432;2022-10-30T03:31:31;14;13;
63969;PMS5003;50156;37.772;-122.432;2022-10-30T03:34:00;12;12;
63969;PMS5003;50156;37.772;-122.432;2022-10-30T03:36:34;17;16;
63969;PMS5003;50156;37.772;-122.432;2022-10-30T03:39:03;15;15;
63969;PMS5003;50156;37.772;-122.432;2022-10-30T03:41:32;20;16;
63969;PMS5003;50156;37.772;-122.432;2022-10-30T03:44:01;17;16;
63969;PMS5003;50156;37.772;-122.432;2022-10-30T03:46:30;19;16;
63969;PMS5003;50156;37.772;-122.432;2022-10-30T03:48:58;20;18;
63969;PMS5003;50156;37.772;-122.432;2022-10-30T03:51:27;15;15;
63969;PMS5003;50156;37.772;-122.432;2022-10-30T03:53:56;12;12;
63969;PMS5003;50156;37.772;-122.432;2022-10-30T03:56:26;14;12;
63969;PMS5003;50156;37.772;-122.432;2022-10-30T03:58:54;14;14;
63969;PMS5003;50156;37.772;-122.432;2022-10-30T04:01:22;13;11;
63969;PMS5003;50156;37.772;-122.432;2022-10-30T04:03:51;13;13;
63969;PMS5003;50156;37.772;-122.432;2022-10-30T04:06:21;17;14;
63969;PMS5003;50156;37.772;-122.432;2022-10-30T04:08:49;13;12;
63969;PMS5003;50156;37.772;-122.432;2022-10-30T04:11:20;15;15;
63969;PMS5003;50156;37.772;-122.432;2022-10-30T04:13:48;14;12;
63969;PMS5003;50156;37.772;-122.432;2022-10-30T04:16:17;12;9;
63969;PMS5003;50156;37.772;-122.432;2022-10-30T04:18:46;13;12;
63969;PMS5003;50156;37.772;-122.432;2022-10-30T04:21:15;19;16;
63969;PMS5003;50156;37.772;-122.432;2022-10-30T04:23:43;10;10;
63969;PMS5003;50156;37.772;-122.432;2022-10-30T04:26:12;13;13;
63969;PMS5003;50156;37.772;-122.432;2022-10-30T04:28:40;12;11;
63969;PMS5003;50156;37.772;-122.432;2022-10-30T04:31:09;9;9;
63969;PMS5003;50156;37.772;-122.432;2022-10-30T04:33:38;13;10;
63969;PMS5003;50156;37.772;-122.432;2022-10-30T04:36:07;12;10;
63969;PMS5003;50156;37.772;-122.432;2022-10-30T04:38:36;13;13;
63969;PMS5003;50156;37.772;-122.432;2022-10-30T04:41:04;11;11;
63969;PMS5003;50156;37.772;-122.432;2022-10-30T04:43:33;10;10;
63969;PMS5003;50156;37.772;-122.432;2022-10-30T04:46:03;14;12;
63969;PMS5003;50156;37.772;-122.432;2022-10-30T04:48:32;12;10;
63969;PMS5003;50156;37.772;-122.432;2022-10-30T04:51:00;18;15;
63969;PMS5003;50156;37.772;-122.432;2022-10-30T04:53:29;13;11;
63969;PMS5003;50156;37.772;-122.432;2022-10-30T04:55:58;12;12;
63969;PMS5003;50156;37.772;-122.432;2022-10-30T04:58:27;12;10;
63969;PMS5003;50156;37.772;-122.432;2022-10-30T05:00:59;13;10;
63969;PMS5003;50156;37.772;-122.432;2022-10-30T05:03:28;8;8;
63969;PMS5003;50156;37.772;-122.432;2022-10-30T05:05:58;11;7;
63969;PMS5003;50156;37.772;-122.432;2022-10-30T05:08:29;12;10;
63969;PMS5003;50156;37.772;-122.432;2022-10-30T05:10:59;11;10;
63969;PMS5003;50156;37.772;-122.432;2022-10-30T05:13:31;14;11;
63969;PMS5003;50156;37.772;-122.432;2022-10-30T05:15:59;13;10;
63969;PMS5003;50156;37.772;-122.432;2022-10-30T05:18:29;11;11;
63969;PMS5003;50156;37.772;-122.432;2022-10-30T05:20:58;11;11;
63969;PMS5003;50156;37.772;-122.432;2022-10-30T05:23:26;12;10;
63969;PMS5003;50156;37.772;-122.432;2022-10-30T05:25:55;13;13;
63969;PMS5003;50156;37.772;-122.432;2022-10-30T05:28:26;10;10;
63969;PMS5003;50156;37.772;-122.432;2022-10-30T05:30:55;11;10;
63969;PMS5003;50156;37.772;-122.432;2022-10-30T05:33:23;11;10;
63969;PMS5003;50156;37.772;-122.432;2022-10-30T05:35:52;8;8;
63969;PMS5003;50156;37.772;-122.432;2022-10-30T05:38:21;8;8;
63969;PMS5003;50156;37.772;-122.432;2022-10-30T05:40:49;12;9;
63969;PMS5003;50156;37.772;-122.432;2022-10-30T05:43:18;8;8;
63969;PMS5003;50156;37.772;-122.432;2022-10-30T05:45:47;8;8;
63969;PMS5003;50156;37.772;-122.432;2022-10-30T05:48:15;8;7;
63969;PMS5003;50156;37.772;-122.432;2022-10-30T05:50:44;10;9;
63969;PMS5003;50156;37.772;-122.432;2022-10-30T05:53:13;7;7;
63969;PMS5003;50156;37.772;-122.432;2022-10-30T05:55:42;14;13;
63969;PMS5003;50156;37.772;-122.432;2022-10-30T05:58:10;11;9;
63969;PMS5003;50156;37.772;-122.432;2022-10-30T06:00:38;11;10;
63969;PMS5003;50156;37.772;-122.432;2022-10-30T06:03:08;9;7;
63969;PMS5003;50156;37.772;-122.432;2022-10-30T06:05:38;9;7;
63969;PMS5003;50156;37.772;-122.432;2022-10-30T06:08:07;9;8;
63969;PMS5003;50156;37.772;-122.432;2022-10-30T06:10:35;13;12;
63969;PMS5003;50156;37.772;-122.432;2022-10-30T06:13:04;8;6;
63969;PMS5003;50156;37.772;-122.432;2022-10-30T06:15:33;7;7;
63969;PMS5003;50156;37.772;-122.432;2022-10-30T06:18:02;8;7;
63969;PMS5003;50156;37.772;-122.432;2022-10-30T06:20:31;7;7;
63969;PMS5003;50156;37.772;-122.432;2022-10-30T06:23:00;9;9;
63969;PMS5003;50156;37.772;-122.432;2022-10-30T06:25:32;10;9;
63969;PMS5003;50156;37.772;-122.432;2022-10-30T06:28:02;11;11;
63969;PMS5003;50156;37.772;-122.432;2022-10-30T06:30:31;8;8;
63969;PMS5003;50156;37.772;-122.432;2022-10-30T06:33:01;8;8;
63969;PMS5003;50156;37.772;-122.432;2022-10-30T06:35:31;9;9;
63969;PMS5003;50156;37.772;-122.432;2022-10-30T06:37:59;7;7;
63969;PMS5003;50156;37.772;-122.432;2022-10-30T06:40:28;16;13;
63969;PMS5003;50156;37.772;-122.432;2022-10-30T06:42:57;9;9;
63969;PMS5003;50156;37.772;-122.432;2022-10-30T06:45:26;9;9;
63969;PMS5003;50156;37.772;-122.432;2022-10-30T06:47:54;8;8;
63969;PMS5003;50156;37.772;-122.432;2022-10-30T06:50:23;13;10;
63969;PMS5003;50156;37.772;-122.432;2022-10-30T06:52:52;13;12;
63969;PMS5003;50156;37.772;-122.432;2022-10-30T06:55:21;12;11;
63969;PMS5003;50156;37.772;-122.432;2022-10-30T06:57:54;14;12;
63969;PMS5003;50156;37.772;-122.432;2022-10-30T07:00:23;19;15;
63969;PMS5003;50156;37.772;-122.432;2022-10-30T07:02:55;13;13;
63969;PMS5003;50156;37.772;-122.432;2022-10-30T07:05:26;14;12;
63969;PMS5003;50156;37.772;-122.432;2022-10-30T07:07:55;19;14;
63969;PMS5003;50156;37.772;-122.432;2022-10-30T07:10:24;24;19;
63969;PMS5003;50156;37.772;-122.432;2022-10-30T07:12:54;19;14;
63969;PMS5003;50156;37.772;-122.432;2022-10-30T07:15:23;13;11;
63969;PMS5003;50156;37.772;-122.432;2022-10-30T07:17:53;17;15;
63969;PMS5003;50156;37.772;-122.432;2022-10-30T07:20:23;20;14;
63969;PMS5003;50156;37.772;-122.432;2022-10-30T07:22:52;14;12;
63969;PMS5003;50156;37.772;-122.432;2022-10-30T07:25:20;25;19;
63969;PMS5003;50156;37.772;-122.432;2022-10-30T07:27:49;16;14;
63969;PMS5003;50156;37.772;-122.432;2022-10-30T07:30:19;15;12;
63969;PMS5003;50156;37.772;-122.432;2022-10-30T07:32:55;18;17;
63969;PMS5003;50156;37.772;-122.432;2022-10-30T07:35:26;18;16;
63969;PMS5003;50156;37.772;-122.432;2022-10-30T07:37:56;20;14;
63969;PMS5003;50156;37.772;-122.432;2022-10-30T07:40:29;17;12;
63969;PMS5003;50156;37.772;-122.432;2022-10-30T07:42:58;24;19;
63969;PMS5003;50156;37.772;-122.432;2022-10-30T07:45:28;19;18;
63969;PMS5003;50156;37.772;-122.432;2022-10-30T07:47:57;17;14;
63969;PMS5003;50156;37.772;-122.432;2022-10-30T07:50:25;18;15;
63969;PMS5003;50156;37.772;-122.432;2022-10-30T07:52:53;22;15;
63969;PMS5003;50156;37.772;-122.432;2022-10-30T07:55:22;16;14;
63969;PMS5003;50156;37.772;-122.432;2022-10-30T07:57:51;14;12;
63969;PMS5003;50156;37.772;-122.432;2022-10-30T08:00:20;14;14;
63969;PMS5003;50156;37.772;-122.432;2022-10-30T08:02:49;14;11;
63969;PMS5003;50156;37.772;-122.432;2022-10-30T08:05:22;11;11;
63969;PMS5003;50156;37.772;-122.432;2022-10-30T08:07:51;13;11;
63969;PMS5003;50156;37.772;-122.432;2022-10-30T08:10:20;13;13;
63969;PMS5003;50156;37.772;-122.432;2022-10-30T08:12:48;12;11;
63969;PMS5003;50156;37.772;-122.432;2022-10-30T08:15:17;16;11;
63969;PMS5003;50156;37.772;-122.432;2022-10-30T08:17:46;15;13;
63969;PMS5003;50156;37.772;-122.432;2022-10-30T08:20:16;17;14;
63969;PMS5003;50156;37.772;-122.432;2022-10-30T08:22:47;14;14;
63969;PMS5003;50156;37.772;-122.432;2022-10-30T08:25:17;15;12;
63969;PMS5003;50156;37.772;-122.432;2022-10-30T08:27:50;13;13;
63969;PMS5003;50156;37.772;-122.432;2022-10-30T08:30:20;15;13;
63969;PMS5003;50156;37.772;-122.432;2022-10-30T08:32:50;16;11;
63969;PMS5003;50156;37.772;-122.432;2022-10-30T08:35:22;15;11;
63969;PMS5003;50156;37.772;-122.432;2022-10-30T08:37:53;11;11;
63969;PMS5003;50156;37.772;-122.432;2022-10-30T08:40:23;10;10;
63969;PMS5003;50156;37.772;-122.432;2022-10-30T08:42:52;11;10;
63969;PMS5003;50156;37.772;-122.432;2022-10-30T08:45:22;15;13;
63969;PMS5003;50156;37.772;-122.432;2022-10-30T08:48:00;10;9;
63969;PMS5003;50156;37.772;-122.432;2022-10-30T08:50:30;12;11;
63969;PMS5003;50156;37.772;-122.432;2022-10-30T08:53:00;20;15;
63969;PMS5003;50156;37.772;-122.432;2022-10-30T08:55:30;17;17;
63969;PMS5003;50156;37.772;-122.432;2022-10-30T08:57:59;19;16;
63969;PMS5003;50156;37.772;-122.432;2022-10-30T09:00:28;22;22;
63969;PMS5003;50156;37.772;-122.432;2022-10-30T09:02:57;10;10;
63969;PMS5003;50156;37.772;-122.432;2022-10-30T09:05:27;22;22;
63969;PMS5003;50156;37.772;-122.432;2022-10-30T09:07:56;17;17;
63969;PMS5003;50156;37.772;-122.432;2022-10-30T09:10:25;17;17;
63969;PMS5003;50156;37.772;-122.432;2022-10-30T09:12:54;18;15;
63969;PMS5003;50156;37.772;-122.432;2022-10-30T09:15:23;11;11;
63969;PMS5003;50156;37.772;-122.432;2022-10-30T09:17:56;13;12;
63969;PMS5003;50156;37.772;-122.432;2022-10-30T09:20:26;12;10;
63969;PMS5003;50156;37.772;-122.432;2022-10-30T09:22:56;14;14;
63969;PMS5003;50156;37.772;-122.432;2022-10-30T09:25:25;9;9;
63969;PMS5003;50156;37.772;-122.432;2022-10-30T09:27:54;11;11;
63969;PMS5003;50156;37.772;-122.432;2022-10-30T09:30:23;14;13;
63969;PMS5003;50156;37.772;-122.432;2022-10-30T09:32:54;11;11;
63969;PMS5003;50156;37.772;-122.432;2022-10-30T09:35:24;26;23;
63969;PMS5003;50156;37.772;-122.432;2022-10-30T09:37:52;14;14;
63969;PMS5003;50156;37.772;-122.432;2022-10-30T09:40:21;11;10;
63969;PMS5003;50156;37.772;-122.432;2022-10-30T09:42:59;11;10;
63969;PMS5003;50156;37.772;-122.432;2022-10-30T09:45:56;10;10;
63969;PMS5003;50156;37.772;-122.432;2022-10-30T09:48:42;9;8;
63969;PMS5003;50156;37.772;-122.432;2022-10-30T09:51:27;9;9;
63969;PMS5003;50156;37.772;-122.432;2022-10-30T09:54:29;9;9;
63969;PMS5003;50156;37.772;-122.432;2022-10-30T09:57:11;11;9;
63969;PMS5003;50156;37.772;-122.432;2022-10-30T09:59:52;8;8;
63969;PMS5003;50156;37.772;-122.432;2022-10-30T10:02:32;8;8;
63969;PMS5003;50156;37.772;-122.432;2022-10-30T10:05:05;7;7;
63969;PMS5003;50156;37.772;-122.432;2022-10-30T10:07:43;10;8;
63969;PMS5003;50156;37.772;-122.432;2022-10-30T10:10:16;13;13;
63969;PMS5003;50156;37.772;-122.432;2022-10-30T10:12:49;12;11;
63969;PMS5003;50156;37.772;-122.432;2022-10-30T10:15:23;20;17;
63969;PMS5003;50156;37.772;-122.432;2022-10-30T10:18:01;17;16;
63969;PMS5003;50156;37.772;-122.432;2022-10-30T10:20:35;12;12;
63969;PMS5003;50156;37.772;-122.432;2022-10-30T10:23:11;13;13;
63969;PMS5003;50156;37.772;-122.432;2022-10-30T10:25:46;13;13;
63969;PMS5003;50156;37.772;-122.432;2022-10-30T10:28:23;16;14;
63969;PMS5003;50156;37.772;-122.432;2022-10-30T10:31:10;16;16;
63969;PMS5003;50156;37.772;-122.432;2022-10-30T10:33:53;20;15;
63969;PMS5003;50156;37.772;-122.432;2022-10-30T10:36:40;23;19;
63969;PMS5003;50156;37.772;-122.432;2022-10-30T10:39:25;16;16;
63969;PMS5003;50156;37.772;-122.432;2022-10-30T10:42:10;24;22;
63969;PMS5003;50156;37.772;-122.432;2022-10-30T10:44:53;20;19;
63969;PMS5003;50156;37.772;-122.432;2022-10-30T10:47:49;18;16;
63969;PMS5003;50156;37.772;-122.432;2022-10-30T10:50:32;22;21;
63969;PMS5003;50156;37.772;-122.432;2022-10-30T10:53:05;22;22;
63969;PMS5003;50156;37.772;-122.432;2022-10-30T10:55:37;16;13;
63969;PMS5003;50156;37.772;-122.432;2022-10-30T10:58:10;11;9;
63969;PMS5003;50156;37.772;-122.432;2022-10-30T11:00:47;10;8;
63969;PMS5003;50156;37.772;-122.432;2022-10-30T11:03:18;6;6;
63969;PMS5003;50156;37.772;-122.432;2022-10-30T11:05:53;8;6;
63969;PMS5003;50156;37.772;-122.432;2022-10-30T11:08:28;8;8;
63969;PMS5003;50156;37.772;-122.432;2022-10-30T11:10:58;11;10;
63969;PMS5003;50156;37.772;-122.432;2022-10-30T11:13:28;8;8;
63969;PMS5003;50156;37.772;-122.432;2022-10-30T11:16:03;9;9;
63969;PMS5003;50156;37.772;-122.432;2022-10-30T11:18:43;14;12;
63969;PMS5003;50156;37.772;-122.432;2022-10-30T11:21:17;6;6;
63969;PMS5003;50156;37.772;-122.432;2022-10-30T11:23:48;9;8;
63969;PMS5003;50156;37.772;-122.432;2022-10-30T11:26:25;10;9;
63969;PMS5003;50156;37.772;-122.432;2022-10-30T11:28:58;9;9;
63969;PMS5003;50156;37.772;-122.432;2022-10-30T11:31:40;8;6;
63969;PMS5003;50156;37.772;-122.432;2022-10-30T11:34:17;7;5;
63969;PMS5003;50156;37.772;-122.432;2022-10-30T11:36:55;10;10;
63969;PMS5003;50156;37.772;-122.432;2022-10-30T11:39:24;8;8;
63969;PMS5003;50156;37.772;-122.432;2022-10-30T11:41:55;10;10;
63969;PMS5003;50156;37.772;-122.432;2022-10-30T11:44:27;16;13;
63969;PMS5003;50156;37.772;-122.432;2022-10-30T11:46:59;8;8;
63969;PMS5003;50156;37.772;-122.432;2022-10-30T11:49:31;9;9;
63969;PMS5003;50156;37.772;-122.432;2022-10-30T11:52:05;10;10;
63969;PMS5003;50156;37.772;-122.432;2022-10-30T11:54:36;8;6;
63969;PMS5003;50156;37.772;-122.432;2022-10-30T11:57:14;6;6;
63969;PMS5003;50156;37.772;-122.432;2022-10-30T11:59:47;6;6;
63969;PMS5003;50156;37.772;-122.432;2022-10-30T12:02:19;7;7;
63969;PMS5003;50156;37.772;-122.432;2022-10-30T12:04:50;7;7;
63969;PMS5003;50156;37.772;-122.432;2022-10-30T12:07:24;10;8;
63969;PMS5003;50156;37.772;-122.432;2022-10-30T12:09:57;7;7;
63969;PMS5003;50156;37.772;-122.432;2022-10-30T12:12:27;6;6;
63969;PMS5003;50156;37.772;-122.432;2022-10-30T12:15:07;10;8;
63969;PMS5003;50156;37.772;-122.432;2022-10-30T12:17:49;7;6;
63969;PMS5003;50156;37.772;-122.432;2022-10-30T12:20:19;10;9;
63969;PMS5003;50156;37.772;-122.432;2022-10-30T12:22:48;8;8;
63969;PMS5003;50156;37.772;-122.432;2022-10-30T12:25:20;10;9;
63969;PMS5003;50156;37.772;-122.432;2022-10-30T12:27:57;9;9;
63969;PMS5003;50156;37.772;-122.432;2022-10-30T12:30:31;14;13;
63969;PMS5003;50156;37.772;-122.432;2022-10-30T12:33:05;12;10;
63969;PMS5003;50156;37.772;-122.432;2022-10-30T12:35:41;8;8;
63969;PMS5003;50156;37.772;-122.432;2022-10-30T12:38:17;8;8;
63969;PMS5003;50156;37.772;-122.432;2022-10-30T12:40:57;12;12;
63969;PMS5003;50156;37.772;-122.432;2022-10-30T12:43:32;11;9;
63969;PMS5003;50156;37.772;-122.432;2022-10-30T12:46:12;12;11;
63969;PMS5003;50156;37.772;-122.432;2022-10-30T12:48:49;9;9;
63969;PMS5003;50156;37.772;-122.432;2022-10-30T12:51:28;11;11;
63969;PMS5003;50156;37.772;-122.432;2022-10-30T12:54:03;11;11;
63969;PMS5003;50156;37.772;-122.432;2022-10-30T12:56:43;13;11;
63969;PMS5003;50156;37.772;-122.432;2022-10-30T12:59:20;12;12;
63969;PMS5003;50156;37.772;-122.432;2022-10-30T13:01:59;10;10;
63969;PMS5003;50156;37.772;-122.432;2022-10-30T13:04:40;6;6;
63969;PMS5003;50156;37.772;-122.432;2022-10-30T13:07:11;9;7;
63969;PMS5003;50156;37.772;-122.432;2022-10-30T13:09:47;9;9;
63969;PMS5003;50156;37.772;-122.432;2022-10-30T13:12:27;6;6;
63969;PMS5003;50156;37.772;-122.432;2022-10-30T13:15:00;6;6;
63969;PMS5003;50156;37.772;-122.432;2022-10-30T13:17:32;5;5;
63969;PMS5003;50156;37.772;-122.432;2022-10-30T13:20:01;6;6;
63969;PMS5003;50156;37.772;-122.432;2022-10-30T13:22:33;7;7;
63969;PMS5003;50156;37.772;-122.432;2022-10-30T13:25:11;7;7;
63969;PMS5003;50156;37.772;-122.432;2022-10-30T13:27:46;8;6;
63969;PMS5003;50156;37.772;-122.432;2022-10-30T13:30:21;4;4;
63969;PMS5003;50156;37.772;-122.432;2022-10-30T13:32:57;6;6;
63969;PMS5003;50156;37.772;-122.432;2022-10-30T13:35:36;7;6;
63969;PMS5003;50156;37.772;-122.432;2022-10-30T13:38:25;12;9;
63969;PMS5003;50156;37.772;-122.432;2022-10-30T13:41:07;6;6;
63969;PMS5003;50156;37.772;-122.432;2022-10-30T13:43:48;7;7;
63969;PMS5003;50156;37.772;-122.432;2022-10-30T13:46:27;13;13;
63969;PMS5003;50156;37.772;-122.432;2022-10-30T13:49:18;12;11;
63969;PMS5003;50156;37.772;-122.432;2022-10-30T13:52:00;14;13;
63969;PMS5003;50156;37.772;-122.432;2022-10-30T13:54:37;19;15;
63969;PMS5003;50156;37.772;-122.432;2022-10-30T13:57:11;13;11;
63969;PMS5003;50156;37.772;-122.432;2022-10-30T13:59:49;11;11;
63969;PMS5003;50156;37.772;-122.432;2022-10-30T14:02:31;16;13;
63969;PMS5003;50156;37.772;-122.432;2022-10-30T14:05:12;20;20;
63969;PMS5003;50156;37.772;-122.432;2022-10-30T14:07:54;28;20;
63969;PMS5003;50156;37.772;-122.432;2022-10-30T14:10:39;21;17;
63969;PMS5003;50156;37.772;-122.432;2022-10-30T14:13:16;23;21;
63969;PMS5003;50156;37.772;-122.432;2022-10-30T14:15:50;23;16;
63969;PMS5003;50156;37.772;-122.432;2022-10-30T14:18:24;22;20;
63969;PMS5003;50156;37.772;-122.432;2022-10-30T14:20:55;22;19;
63969;PMS5003;50156;37.772;-122.432;2022-10-30T14:23:28;22;18;
63969;PMS5003;50156;37.772;-122.432;2022-10-30T14:26:12;25;22;
63969;PMS5003;50156;37.772;-122.432;2022-10-30T14:28:45;23;21;
63969;PMS5003;50156;37.772;-122.432;2022-10-30T14:31:17;21;19;
63969;PMS5003;50156;37.772;-122.432;2022-10-30T14:33:59;23;20;
63969;PMS5003;50156;37.772;-122.432;2022-10-30T14:36:47;27;20;
63969;PMS5003;50156;37.772;-122.432;2022-10-30T14:39:36;21;20;
63969;PMS5003;50156;37.772;-122.432;2022-10-30T14:42:09;21;21;
63969;PMS5003;50156;37.772;-122.432;2022-10-30T14:44:48;25;25;
63969;PMS5003;50156;37.772;-122.432;2022-10-30T14:47:45;28;27;
63969;PMS5003;50156;37.772;-122.432;2022-10-30T14:50:29;25;22;
63969;PMS5003;50156;37.772;-122.432;2022-10-30T14:53:30;29;21;
63969;PMS5003;50156;37.772;-122.432;2022-10-30T14:56:18;26;23;
63969;PMS5003;50156;37.772;-122.432;2022-10-30T14:59:07;23;20;
63969;PMS5003;50156;37.772;-122.432;2022-10-30T15:01:47;20;20;
63969;PMS5003;50156;37.772;-122.432;2022-10-30T15:04:22;22;22;
63969;PMS5003;50156;37.772;-122.432;2022-10-30T15:07:04;23;18;
63969;PMS5003;50156;37.772;-122.432;2022-10-30T15:09:46;24;23;
63969;PMS5003;50156;37.772;-122.432;2022-10-30T15:12:47;22;18;
63969;PMS5003;50156;37.772;-122.432;2022-10-30T15:15:38;28;23;
63969;PMS5003;50156;37.772;-122.432;2022-10-30T15:18:08;23;20;
63969;PMS5003;50156;37.772;-122.432;2022-10-30T15:20:42;31;25;
63969;PMS5003;50156;37.772;-122.432;2022-10-30T15:23:17;22;21;
63969;PMS5003;50156;37.772;-122.432;2022-10-30T15:25:51;27;24;
63969;PMS5003;50156;37.772;-122.432;2022-10-30T15:28:24;34;26;
63969;PMS5003;50156;37.772;-122.432;2022-10-30T15:30:59;27;27;
63969;PMS5003;50156;37.772;-122.432;2022-10-30T15:33:29;32;28;
63969;PMS5003;50156;37.772;-122.432;2022-10-30T15:35:58;29;27;
63969;PMS5003;50156;37.772;-122.432;2022-10-30T15:38:27;28;23;
63969;PMS5003;50156;37.772;-122.432;2022-10-30T15:40:56;31;29;
63969;PMS5003;50156;37.772;-122.432;2022-10-30T15:43:28;31;28;
63969;PMS5003;50156;37.772;-122.432;2022-10-30T15:45:59;30;28;
63969;PMS5003;50156;37.772;-122.432;2022-10-30T15:48:29;33;27;
63969;PMS5003;50156;37.772;-122.432;2022-10-30T15:51:00;39;32;
63969;PMS5003;50156;37.772;-122.432;2022-10-30T15:53:35;29;27;
63969;PMS5003;50156;37.772;-122.432;2022-10-30T15:56:09;38;34;
63969;PMS5003;50156;37.772;-122.432;2022-10-30T15:58:43;37;32;
63969;PMS5003;50156;37.772;-122.432;2022-10-30T16:01:22;29;25;
63969;PMS5003;50156;37.772;-122.432;2022-10-30T16:03:52;30;25;
63969;PMS5003;50156;37.772;-122.432;2022-10-30T16:06:23;34;32;
63969;PMS5003;50156;37.772;-122.432;2022-10-30T16:08:52;34;31;
63969;PMS5003;50156;37.772;-122.432;2022-10-30T16:11:22;35;34;
63969;PMS5003;50156;37.772;-122.432;2022-10-30T16:13:52;30;30;
63969;PMS5003;50156;37.772;-122.432;2022-10-30T16:16:23;41;30;